Sint-Lievens-Houtem, Belgium
Current Conditions -  °F | °C
As of 10:25 AM on Friday 31 Oct 2014 (Local Time) from EBCV Reporting Station
Few Clouds Few Clouds  
Wind Chill: 59°   Ceiling: Unl
Heat Index: 59°   Visibility: 6mi
Dew Point: 52°   Wind: 6mph
Humidity: 77%   Direction: 180°S
Pressure: 30.18"   Gusts: NA
Location:  50.92°N, 3.86°E
Report Text: EBCV 310925Z AUTO 18005KT 9999 FEW210/// 15/11 Q1022 BLU
Loading
Personal Weather Stations






























Interactive Weather Map
Tropical Storm Tracking
New forecast layout! Learn more

10-Day Weather Forecast

Advertisements
Track Severe Weather on mobile